Time;durP1;ratioP1;P1;durP2;ratioP2;P2;SDS_P1;SDS_P2;PMS_P1;PMS_P2;Temp;Humidity;BMP_temperature;BMP_pressure;BME280_temperature;BME280_humidity;BME280_pressure;Samples;Min_cycle;Max_cycle;Signal;HPM_P1;HPM_P2
2022/04/08 00:02:43;;;;;;;4.70;1.02;;;;;;;5.19;100.00;98645.09;6247127;28;20061;-70
2022/04/08 00:05:44;;;;;;;0.30;0.30;;;;;;;5.26;100.00;98653.31;6247528;28;20076;-70
2022/04/08 00:08:46;;;;;;;0.30;0.30;;;;;;;5.30;100.00;98668.63;6247356;28;20058;-70
2022/04/08 00:11:47;;;;;;;2.58;0.73;;;;;;;5.26;100.00;98666.34;6246824;28;20132;-70
2022/04/08 00:14:49;;;;;;;6.88;0.80;;;;;;;5.28;100.00;98674.91;6247293;28;20053;-71
2022/04/08 00:17:52;;;;;;;0.22;0.20;;;;;;;5.26;100.00;98684.56;6247497;28;20448;-70
2022/04/08 00:20:53;;;;;;;1.02;0.57;;;;;;;5.24;100.00;98678.63;6246439;28;20512;-70
2022/04/08 00:23:55;;;;;;;0.45;0.45;;;;;;;5.25;100.00;98714.97;6247307;28;20057;-70
2022/04/08 00:26:56;;;;;;;1.70;0.40;;;;;;;5.15;100.00;98721.72;6247157;28;20096;-71
2022/04/08 00:29:57;;;;;;;1.35;0.65;;;;;;;5.01;100.00;98792.88;6246914;28;20049;-70
2022/04/08 00:33:00;;;;;;;0.20;0.20;;;;;;;4.92;100.00;98753.56;6246602;28;20041;-70
2022/04/08 00:36:02;;;;;;;3.10;0.40;;;;;;;4.78;100.00;98751.81;6246598;28;20053;-68
2022/04/08 00:39:03;;;;;;;3.60;0.55;;;;;;;4.69;100.00;98776.63;6246929;28;20053;-68
2022/04/08 00:42:06;;;;;;;0.65;0.30;;;;;;;4.64;100.00;98781.28;6246188;28;20048;-71
2022/04/08 00:45:08;;;;;;;0.30;0.30;;;;;;;4.55;100.00;98790.47;6246686;28;20080;-70
2022/04/08 00:48:12;;;;;;;0.82;0.65;;;;;;;4.49;100.00;98792.59;6246517;28;20049;-71
2022/04/08 00:51:15;;;;;;;0.20;0.20;;;;;;;4.48;100.00;98803.94;6246069;28;20045;-70
2022/04/08 00:54:17;;;;;;;1.95;0.40;;;;;;;4.45;100.00;98802.38;6246578;28;20070;-71
2022/04/08 00:57:18;;;;;;;0.05;0.05;;;;;;;4.44;100.00;98821.47;6246717;28;20053;-70
2022/04/08 01:00:22;;;;;;;5.63;0.30;;;;;;;4.48;100.00;98825.56;6245892;28;20054;-70
2022/04/08 01:03:25;;;;;;;1.00;0.45;;;;;;;4.51;100.00;98837.56;6246488;28;20056;-70
2022/04/08 01:06:27;;;;;;;0.25;0.22;;;;;;;4.52;100.00;98837.47;6246639;28;20049;-71
2022/04/08 01:09:28;;;;;;;0.55;0.40;;;;;;;4.53;100.00;98839.13;6246458;28;20103;-70
2022/04/08 01:12:29;;;;;;;1.75;0.47;;;;;;;4.55;100.00;98841.66;6245865;28;20049;-70
2022/04/08 01:15:31;;;;;;;0.40;0.22;;;;;;;4.50;100.00;98854.13;6246446;28;20053;-71
2022/04/08 01:18:33;;;;;;;0.25;0.25;;;;;;;4.51;100.00;98866.19;6246601;28;20068;-71
2022/04/08 01:21:35;;;;;;;9.65;1.02;;;;;;;4.58;100.00;98885.69;6245532;28;20046;-70
2022/04/08 01:24:37;;;;;;;0.65;0.52;;;;;;;4.60;100.00;98886.44;6263768;28;20049;-70
2022/04/08 01:27:40;;;;;;;0.47;0.35;;;;;;;4.57;100.00;98891.81;6270660;28;20179;-71
2022/04/08 01:30:41;;;;;;;1.13;0.38;;;;;;;4.58;100.00;98896.09;6258846;28;20045;-71
2022/04/08 01:33:43;;;;;;;1.75;0.73;;;;;;;4.59;100.00;98908.19;6270626;28;20044;-71
2022/04/08 01:36:44;;;;;;;0.30;0.30;;;;;;;4.62;100.00;98914.97;6267457;28;20421;-70
2022/04/08 01:39:45;;;;;;;0.50;0.50;;;;;;;4.57;100.00;98926.47;6245866;28;20524;-71
2022/04/08 01:42:48;;;;;;;3.42;0.60;;;;;;;4.54;100.00;98931.00;6245390;28;20045;-70
2022/04/08 01:45:49;;;;;;;0.85;0.43;;;;;;;4.50;100.00;98932.13;6246210;28;20045;-70
2022/04/08 01:48:54;;;;;;;1.52;0.45;;;;;;;4.45;100.00;98942.81;6247860;28;20052;-70
2022/04/08 01:51:55;;;;;;;0.45;0.45;;;;;;;4.39;100.00;98953.53;6249794;28;20461;-70
2022/04/08 01:54:57;;;;;;;0.80;0.10;;;;;;;4.37;100.00;98955.41;6250442;28;20390;-70
2022/04/08 01:58:00;;;;;;;0.65;0.22;;;;;;;4.36;100.00;98976.28;6250634;28;20505;-70
2022/04/08 02:01:02;;;;;;;0.10;0.05;;;;;;;4.37;100.00;98973.59;6249597;28;20398;-70
2022/04/08 02:04:04;;;;;;;1.20;0.22;;;;;;;4.38;100.00;98983.06;6250565;28;20057;-70
2022/04/08 02:07:06;;;;;;;1.55;0.30;;;;;;;4.35;100.00;98991.03;6250257;28;20092;-67
2022/04/08 02:10:08;;;;;;;0.75;0.45;;;;;;;4.33;100.00;98995.50;6249751;28;20062;-67
2022/04/08 02:13:11;;;;;;;1.02;0.60;;;;;;;4.23;100.00;99002.16;6249792;28;20072;-68
2022/04/08 02:16:12;;;;;;;0.20;0.20;;;;;;;4.13;100.00;99014.78;6249913;28;20057;-67
2022/04/08 02:19:13;;;;;;;3.60;0.25;;;;;;;4.03;100.00;99018.81;6250098;28;20053;-71
2022/04/08 02:22:14;;;;;;;0.25;0.20;;;;;;;3.99;100.00;99015.53;6249075;28;20048;-70
2022/04/08 02:25:16;;;;;;;1.83;0.40;;;;;;;3.96;100.00;99017.50;6249999;28;20056;-70
2022/04/08 02:28:19;;;;;;;0.95;0.30;;;;;;;3.95;100.00;99028.78;6249596;28;20077;-70
2022/04/08 02:31:20;;;;;;;0.47;0.32;;;;;;;3.89;100.00;99042.13;6248826;28;20051;-70
2022/04/08 02:34:21;;;;;;;0.20;0.17;;;;;;;3.85;100.00;99041.44;6249651;28;20057;-70
2022/04/08 02:37:23;;;;;;;1.27;0.60;;;;;;;3.81;100.00;99045.09;6249832;28;20045;-70
2022/04/08 02:40:24;;;;;;;3.30;0.60;;;;;;;3.79;100.00;99045.19;6248749;28;20053;-69
2022/04/08 02:43:27;;;;;;;2.17;0.68;;;;;;;3.78;100.00;99050.50;6249633;28;20046;-70
2022/04/08 02:46:28;;;;;;;0.43;0.20;;;;;;;3.78;100.00;99056.53;6249424;28;20056;-70
2022/04/08 02:49:30;;;;;;;0.43;0.22;;;;;;;3.75;100.00;99059.28;6249145;28;20064;-70
2022/04/08 02:52:31;;;;;;;0.45;0.40;;;;;;;3.76;100.00;99060.09;6248660;28;20046;-70
2022/04/08 02:55:32;;;;;;;8.98;0.88;;;;;;;3.83;100.00;99069.28;6249128;28;20060;-67
2022/04/08 02:58:36;;;;;;;0.45;0.30;;;;;;;3.81;100.00;99074.56;6249197;28;20049;-67
2022/04/08 03:01:38;;;;;;;0.50;0.50;;;;;;;3.84;100.00;99070.09;6248263;28;20479;-68
2022/04/08 03:04:39;;;;;;;4.55;0.68;;;;;;;3.89;100.00;99081.09;6249307;28;20056;-70
2022/04/08 03:07:41;;;;;;;0.63;0.40;;;;;;;3.86;100.00;99100.28;6248853;28;20060;-70
2022/04/08 03:10:43;;;;;;;0.57;0.57;;;;;;;3.83;100.00;99090.06;6248158;28;20531;-69
2022/04/08 03:13:46;;;;;;;0.38;0.38;;;;;;;3.80;100.00;99083.25;6248754;28;20050;-69
2022/04/08 03:16:47;;;;;;;1.17;0.52;;;;;;;3.80;100.00;99091.03;6248515;28;20436;-69
2022/04/08 03:19:48;;;;;;;1.35;0.55;;;;;;;3.72;100.00;99095.78;6248334;28;20045;-69
2022/04/08 03:22:50;;;;;;;0.82;0.40;;;;;;;3.67;100.00;99105.59;6250667;28;20048;-69
2022/04/08 03:25:51;;;;;;;0.20;0.20;;;;;;;3.70;100.00;99127.97;6273073;28;20052;-68
2022/04/08 03:28:54;;;;;;;0.55;0.20;;;;;;;3.63;100.00;99119.63;6267977;28;20609;-70
2022/04/08 03:31:55;;;;;;;0.32;0.32;;;;;;;3.65;100.00;99120.41;6247559;28;20061;-70
2022/04/08 03:34:58;;;;;;;0.25;0.25;;;;;;;3.67;100.00;99134.16;6253473;28;20041;-69
2022/04/08 03:37:59;;;;;;;1.98;0.75;;;;;;;3.61;100.00;99157.03;6263773;28;20180;-69
2022/04/08 03:41:01;;;;;;;1.13;0.45;;;;;;;3.34;100.00;99167.84;6256794;28;20045;-69
2022/04/08 03:44:04;;;;;;;0.20;0.20;;;;;;;3.04;100.00;99177.97;6264185;28;20041;-69
2022/04/08 03:47:06;;;;;;;0.63;0.45;;;;;;;2.93;100.00;99186.25;6272788;28;20055;-69
2022/04/08 03:50:08;;;;;;;0.30;0.30;;;;;;;2.86;100.00;99202.19;6256691;28;20059;-68
2022/04/08 03:53:12;;;;;;;0.35;0.22;;;;;;;2.69;100.00;99184.81;6255411;28;20044;-69
2022/04/08 03:56:14;;;;;;;0.22;0.20;;;;;;;2.62;100.00;99192.03;6259410;28;20045;-69
2022/04/08 03:59:17;;;;;;;0.77;0.40;;;;;;;2.58;100.00;99194.84;6259370;28;20056;-69
2022/04/08 04:02:19;;;;;;;0.43;0.40;;;;;;;2.64;100.00;99199.75;6259106;28;20183;-69
2022/04/08 04:05:21;;;;;;;1.67;0.38;;;;;;;2.68;100.00;99214.25;6257789;28;20159;-69
2022/04/08 04:08:22;;;;;;;1.80;0.52;;;;;;;2.70;100.00;99207.25;6259251;28;20648;-69
2022/04/08 04:11:24;;;;;;;5.55;0.90;;;;;;;2.73;100.00;99220.91;6255672;28;20424;-69
2022/04/08 04:14:26;;;;;;;0.20;0.20;;;;;;;2.73;100.00;99220.09;6262712;28;20045;-69
2022/04/08 04:17:28;;;;;;;0.32;0.32;;;;;;;2.79;100.00;99227.56;6272183;28;20056;-69
2022/04/08 04:20:29;;;;;;;0.30;0.30;;;;;;;2.82;100.00;99223.97;6271279;28;20049;-69
2022/04/08 04:23:31;;;;;;;0.20;0.20;;;;;;;2.80;100.00;99242.22;6272162;28;20045;-69
2022/04/08 04:26:33;;;;;;;0.38;0.38;;;;;;;2.77;100.00;99252.72;6271708;28;20459;-70
2022/04/08 04:29:35;;;;;;;0.77;0.28;;;;;;;2.72;100.00;99252.09;6271722;28;20059;-69
2022/04/08 04:32:37;;;;;;;0.20;0.20;;;;;;;2.65;100.00;99264.50;6271277;28;20073;-69
2022/04/08 04:35:39;;;;;;;0.15;0.15;;;;;;;2.58;100.00;99250.13;6271911;28;20093;-69
2022/04/08 04:38:41;;;;;;;0.63;0.30;;;;;;;2.54;100.00;99267.59;6271658;28;20045;-69
2022/04/08 04:41:42;;;;;;;1.10;0.32;;;;;;;2.50;100.00;99265.22;6270983;28;20119;-69
2022/04/08 04:44:45;;;;;;;0.30;0.30;;;;;;;2.43;100.00;99271.56;6271383;28;20056;-69
2022/04/08 04:47:46;;;;;;;0.70;0.20;;;;;;;2.37;100.00;99271.84;6270447;28;20504;-69
2022/04/08 04:50:47;;;;;;;0.57;0.28;;;;;;;2.35;100.00;99278.81;6266998;28;20041;-69
2022/04/08 04:53:49;;;;;;;1.60;0.38;;;;;;;2.28;100.00;99286.03;6251495;28;20045;-69
2022/04/08 04:56:50;;;;;;;0.90;0.30;;;;;;;2.31;100.00;99296.25;6259114;28;20045;-69
2022/04/08 04:59:53;;;;;;;0.13;0.13;;;;;;;2.32;100.00;99297.94;6246277;28;20056;-69
2022/04/08 05:02:54;;;;;;;0.50;0.30;;;;;;;2.32;100.00;99310.03;6246135;28;20133;-69
2022/04/08 05:05:55;;;;;;;3.92;0.30;;;;;;;2.36;100.00;99309.00;6246667;28;20049;-70
2022/04/08 05:08:57;;;;;;;0.55;0.20;;;;;;;2.43;100.00;99316.47;6246436;28;20060;-69
2022/04/08 05:11:58;;;;;;;0.20;0.20;;;;;;;2.54;100.00;99303.03;6245835;28;20045;-69
2022/04/08 05:15:01;;;;;;;0.15;0.10;;;;;;;2.62;100.00;99313.91;6246602;28;20050;-69
2022/04/08 05:18:02;;;;;;;0.20;0.20;;;;;;;2.69;100.00;99323.13;6246575;28;20137;-70
2022/04/08 05:21:03;;;;;;;0.10;0.10;;;;;;;2.80;100.00;99344.22;6245741;28;20053;-69
2022/04/08 05:24:06;;;;;;;0.20;0.20;;;;;;;2.85;100.00;99350.97;6262956;28;20416;-69
2022/04/08 05:27:07;;;;;;;1.60;0.30;;;;;;;2.80;100.00;99354.59;6275609;28;20045;-69
2022/04/08 05:30:13;;;;;;;0.57;0.52;;;;;;;2.72;100.00;99369.66;6268776;28;20417;-69
2022/04/08 05:33:14;;;;;;;0.15;0.15;;;;;;;2.64;100.00;99365.72;6250778;28;20549;-69
2022/04/08 05:36:16;;;;;;;0.13;0.13;;;;;;;2.50;100.00;99379.28;6250946;28;20056;-69
2022/04/08 05:39:17;;;;;;;0.25;0.25;;;;;;;2.40;100.00;99373.63;6250974;28;20049;-69
2022/04/08 05:42:18;;;;;;;0.30;0.30;;;;;;;2.36;100.00;99384.19;6250098;28;20049;-69
2022/04/08 05:45:21;;;;;;;0.75;0.65;;;;;;;2.40;100.00;99380.56;6250762;28;20448;-69
2022/04/08 05:48:23;;;;;;;0.43;0.38;;;;;;;2.39;100.00;99390.09;6250763;28;20052;-69
2022/04/08 05:51:24;;;;;;;0.40;0.40;;;;;;;2.39;100.00;99382.31;6250059;28;20524;-69
2022/04/08 05:54:26;;;;;;;1.02;0.30;;;;;;;2.34;100.00;99386.84;6250387;28;20049;-70
2022/04/08 05:57:27;;;;;;;0.15;0.10;;;;;;;2.32;100.00;99380.91;6250670;28;20050;-69
2022/04/08 06:00:33;;;;;;;4.18;0.77;;;;;;;2.36;100.00;99390.22;6249804;28;20052;-69
2022/04/08 06:03:35;;;;;;;1.08;0.15;;;;;;;2.44;100.00;99390.75;6250634;28;20060;-70
2022/04/08 06:06:38;;;;;;;1.23;0.43;;;;;;;2.61;100.00;99399.56;6250684;28;20500;-70
2022/04/08 06:09:40;;;;;;;1.23;0.50;;;;;;;2.77;100.00;99400.56;6259088;28;20508;-68
2022/04/08 06:12:41;;;;;;;0.52;0.40;;;;;;;2.84;100.00;99393.41;6271420;28;20061;-70
2022/04/08 06:15:44;;;;;;;0.30;0.30;;;;;;;2.89;100.00;99405.25;6267692;28;20049;-70
2022/04/08 06:18:45;;;;;;;7.22;0.35;;;;;;;2.94;100.00;99413.66;6249899;28;20432;-69
2022/04/08 06:21:46;;;;;;;0.30;0.30;;;;;;;2.91;100.00;99400.00;6249200;28;20056;-69
2022/04/08 06:24:48;;;;;;;1.10;0.25;;;;;;;2.95;100.00;99411.91;6250093;28;20050;-70
2022/04/08 06:27:56;;;;;;;1.48;0.43;;;;;;;2.99;100.00;99408.28;6249772;28;20057;-69
2022/04/08 06:30:59;;;;;;;0.55;0.40;;;;;;;3.04;100.00;99407.19;6249240;28;20126;-70
2022/04/08 06:34:01;;;;;;;1.35;0.55;;;;;;;3.13;100.00;99397.28;6249048;28;20069;-70
2022/04/08 06:37:03;;;;;;;0.35;0.35;;;;;;;3.17;100.00;99406.63;6249838;28;20049;-70
2022/04/08 06:40:06;;;;;;;0.57;0.35;;;;;;;3.21;100.00;99406.41;6249055;28;20057;-69
2022/04/08 06:43:08;;;;;;;2.70;0.90;;;;;;;3.23;100.00;99411.56;6249061;28;20049;-70
2022/04/08 06:46:11;;;;;;;0.80;0.35;;;;;;;3.24;100.00;99421.03;6249514;28;20046;-70
2022/04/08 06:49:13;;;;;;;0.70;0.70;;;;;;;3.19;100.00;99405.66;6249491;28;20046;-70
2022/04/08 06:52:14;;;;;;;0.90;0.57;;;;;;;3.21;100.00;99413.38;6248670;28;20148;-70
2022/04/08 06:55:16;;;;;;;0.38;0.38;;;;;;;3.24;100.00;99411.50;6249085;28;20417;-70
2022/04/08 06:58:19;;;;;;;0.80;0.60;;;;;;;3.24;100.00;99415.84;6249289;28;20049;-70
2022/04/08 07:01:22;;;;;;;0.57;0.38;;;;;;;3.28;100.00;99413.03;6248207;28;20052;-70
2022/04/08 07:04:25;;;;;;;3.70;0.50;;;;;;;3.43;100.00;99408.06;6249177;28;20441;-69
2022/04/08 07:07:29;;;;;;;1.77;0.77;;;;;;;3.49;100.00;99412.97;6248845;28;20060;-70
2022/04/08 07:10:30;;;;;;;2.13;0.60;;;;;;;3.53;100.00;99409.31;6248430;28;20084;-70
2022/04/08 07:13:32;;;;;;;0.30;0.30;;;;;;;3.64;100.00;99421.81;6248541;28;20386;-71
2022/04/08 07:16:34;;;;;;;0.70;0.50;;;;;;;3.74;100.00;99418.72;6256813;28;20053;-70
2022/04/08 07:19:36;;;;;;;0.52;0.52;;;;;;;3.92;100.00;99410.97;6273366;28;20512;-69
2022/04/08 07:22:37;;;;;;;6.35;0.90;;;;;;;4.02;100.00;99418.25;6271102;28;20048;-69
2022/04/08 07:25:39;;;;;;;4.68;1.23;;;;;;;4.04;100.00;99426.84;6272943;28;20049;-69
2022/04/08 07:28:40;;;;;;;1.48;0.80;;;;;;;4.04;100.00;99418.16;6266501;28;20045;-69
2022/04/08 07:31:43;;;;;;;1.83;0.50;;;;;;;4.09;100.00;99418.81;6266400;28;20048;-69
2022/04/08 07:34:44;;;;;;;0.30;0.30;;;;;;;4.14;100.00;99426.41;6269343;28;20049;-69
2022/04/08 07:37:46;;;;;;;8.68;2.58;;;;;;;4.16;100.00;99424.56;6252028;28;20057;-69
2022/04/08 07:40:47;;;;;;;1.33;0.45;;;;;;;4.25;100.00;99411.09;6247100;28;20501;-69
2022/04/08 07:43:49;;;;;;;1.00;0.68;;;;;;;4.31;100.00;99418.59;6248193;28;20048;-71
2022/04/08 07:46:52;;;;;;;1.13;0.57;;;;;;;4.40;100.00;99425.94;6269410;28;20110;-70
2022/04/08 07:49:56;;;;;;;0.25;0.25;;;;;;;4.49;100.00;99425.47;6272358;28;20492;-70
2022/04/08 07:52:58;;;;;;;4.38;0.88;;;;;;;4.55;100.00;99413.97;6272133;28;20071;-70
2022/04/08 07:55:59;;;;;;;4.13;0.80;;;;;;;4.62;100.00;99417.06;6272611;28;20056;-71
2022/04/08 07:59:00;;;;;;;1.42;0.40;;;;;;;4.62;100.00;99411.88;6272380;28;20519;-70
2022/04/08 08:02:03;;;;;;;0.43;0.43;;;;;;;4.76;100.00;99409.41;6264403;28;20052;-70
2022/04/08 08:05:06;;;;;;;0.85;0.68;;;;;;;4.90;100.00;99403.50;6247739;28;20409;-70
2022/04/08 08:08:08;;;;;;;4.28;0.60;;;;;;;4.94;100.00;99438.88;6247182;28;20130;-71
2022/04/08 08:11:12;;;;;;;0.98;0.55;;;;;;;4.83;100.00;99436.81;6246662;28;20398;-71
2022/04/08 08:14:13;;;;;;;2.17;0.60;;;;;;;4.88;100.00;99437.44;6247059;28;20059;-71
2022/04/08 08:17:15;;;;;;;1.67;0.50;;;;;;;4.98;100.00;99428.22;6247199;28;20057;-71
2022/04/08 08:20:19;;;;;;;2.63;0.95;;;;;;;5.06;100.00;99459.06;6246630;28;20057;-72
2022/04/08 08:23:20;;;;;;;4.68;0.43;;;;;;;5.13;100.00;99425.72;6247115;28;20045;-71
2022/04/08 08:26:22;;;;;;;3.08;0.43;;;;;;;5.21;100.00;99434.84;6261094;28;20049;-70
2022/04/08 08:29:23;;;;;;;5.38;1.15;;;;;;;5.24;100.00;99436.44;6271781;28;20055;-72
2022/04/08 08:32:26;;;;;;;0.75;0.38;;;;;;;5.16;100.00;99422.97;6271109;28;20049;-71
2022/04/08 08:35:28;;;;;;;2.63;0.65;;;;;;;5.23;100.00;99435.63;6271401;28;20489;-71
2022/04/08 08:38:29;;;;;;;2.63;0.98;;;;;;;5.30;100.00;99443.94;6271734;28;20049;-71
2022/04/08 08:41:31;;;;;;;0.52;0.32;;;;;;;5.24;100.00;99446.88;6270482;28;20075;-72
2022/04/08 08:44:32;;;;;;;1.65;0.50;;;;;;;5.21;100.00;99442.66;6271370;28;20145;-70
2022/04/08 08:47:36;;;;;;;5.05;0.43;;;;;;;5.32;100.00;99449.91;6271405;28;20053;-71
2022/04/08 08:50:39;;;;;;;3.38;0.88;;;;;;;5.38;100.00;99446.13;6270571;28;20072;-71
2022/04/08 08:53:41;;;;;;;4.15;0.88;;;;;;;5.43;100.00;99429.34;6271188;28;20373;-71
2022/04/08 08:56:43;;;;;;;0.38;0.38;;;;;;;5.50;100.00;99437.69;6271043;28;20056;-71
2022/04/08 08:59:46;;;;;;;1.38;0.40;;;;;;;5.59;100.00;99429.38;6270881;28;20045;-71
2022/04/08 09:02:49;;;;;;;0.47;0.30;;;;;;;5.52;100.00;99431.44;6270085;28;20521;-72
2022/04/08 09:05:52;;;;;;;1.45;0.70;;;;;;;5.38;100.00;99446.13;6271017;28;20041;-71
2022/04/08 09:08:58;;;;;;;2.13;0.85;;;;;;;5.19;100.00;99438.47;6271197;28;20547;-71
2022/04/08 09:12:10;;;;;;;0.30;0.30;;;;;;;5.34;100.00;99445.44;6269018;28;20045;-71
2022/04/08 09:15:14;;;;;;;0.28;0.28;;;;;;;5.47;100.00;99453.47;6271012;28;20067;-70
2022/04/08 09:18:17;;;;;;;0.30;0.30;;;;;;;5.43;100.00;99438.91;6258513;28;20057;-70
2022/04/08 09:21:22;;;;;;;1.65;0.85;;;;;;;5.44;100.00;99444.03;6270178;28;20055;-71
2022/04/08 09:24:24;;;;;;;0.55;0.40;;;;;;;5.55;100.00;99446.09;6270311;28;20174;-72
2022/04/08 09:27:33;;;;;;;0.52;0.52;;;;;;;5.78;100.00;99434.41;6270360;28;20045;-70
2022/04/08 09:30:34;;;;;;;0.60;0.53;;;;;;;5.96;100.00;99435.22;6260158;28;20056;-71
2022/04/08 09:33:37;;;;;;;0.35;0.30;;;;;;;5.71;100.00;99443.47;6256653;28;20307;-71
2022/04/08 09:36:41;;;;;;;0.85;0.30;;;;;;;5.66;100.00;99438.53;6270722;28;20049;-71
2022/04/08 09:39:54;;;;;;;0.65;0.47;;;;;;;5.67;100.00;99436.75;6268495;28;20041;-72
2022/04/08 09:42:56;;;;;;;1.35;0.75;;;;;;;5.89;100.00;99444.25;6270602;28;20049;-70
2022/04/08 09:46:12;;;;;;;1.45;0.82;;;;;;;6.21;100.00;99430.28;6270429;28;20420;-72
2022/04/08 09:49:15;;;;;;;1.00;0.40;;;;;;;6.23;100.00;99433.66;6256123;28;20045;-70
2022/04/08 09:52:18;;;;;;;1.42;0.50;;;;;;;6.16;100.00;99421.88;6270107;28;20476;-71
2022/04/08 09:55:21;;;;;;;4.90;0.50;;;;;;;6.28;100.00;99417.75;6270757;28;20049;-71
2022/04/08 09:58:26;;;;;;;0.40;0.30;;;;;;;6.29;100.00;99417.66;6270521;28;20139;-71
2022/04/08 10:01:29;;;;;;;0.63;0.47;;;;;;;6.17;100.00;99422.72;6269755;28;20527;-71
2022/04/08 10:04:32;;;;;;;1.17;0.80;;;;;;;6.26;100.00;99419.59;6270506;28;20416;-71
2022/04/08 10:07:34;;;;;;;1.30;0.43;;;;;;;6.32;100.00;99414.03;6270494;28;20056;-70
2022/04/08 10:10:44;;;;;;;0.63;0.50;;;;;;;6.27;100.00;99398.66;6251612;28;20049;-70
2022/04/08 10:13:52;;;;;;;1.95;0.60;;;;;;;6.35;100.00;99401.63;6250310;28;20056;-71
2022/04/08 10:16:56;;;;;;;0.98;0.47;;;;;;;6.51;100.00;99405.97;6249934;28;20061;-72
2022/04/08 10:20:16;;;;;;;0.57;0.50;;;;;;;6.66;100.00;99425.13;6249772;28;20057;-71
2022/04/08 10:23:19;;;;;;;0.50;0.50;;;;;;;6.45;100.00;99393.28;6250116;28;20049;-71
2022/04/08 10:26:22;;;;;;;0.63;0.40;;;;;;;6.52;100.00;99408.50;6250027;28;20127;-70
2022/04/08 10:29:24;;;;;;;0.70;0.50;;;;;;;6.63;100.00;99392.19;6249554;28;20056;-71
2022/04/08 10:32:25;;;;;;;0.65;0.47;;;;;;;6.75;100.00;99382.81;6249109;28;20049;-71
2022/04/08 10:35:29;;;;;;;2.70;0.95;;;;;;;6.94;100.00;99372.94;6250387;28;20382;-71
2022/04/08 10:38:36;;;;;;;0.22;0.22;;;;;;;6.76;97.87;99376.66;6274405;28;20053;-71
2022/04/08 10:41:44;;;;;;;0.40;0.40;;;;;;;6.57;99.82;99385.56;6273520;28;20049;-70
2022/04/08 10:44:46;;;;;;;0.30;0.30;;;;;;;6.58;98.70;99381.19;6274155;28;20045;-69
2022/04/08 10:47:47;;;;;;;1.17;0.40;;;;;;;6.64;100.00;99393.06;6273972;28;20291;-70
2022/04/08 10:50:51;;;;;;;0.43;0.43;;;;;;;6.81;94.71;99392.88;6273241;28;20049;-70
2022/04/08 10:54:03;;;;;;;2.42;0.55;;;;;;;6.94;93.64;99375.56;6273842;28;20132;-71
2022/04/08 10:57:05;;;;;;;1.38;0.88;;;;;;;6.96;95.79;99383.31;6274062;28;20062;-70
2022/04/08 11:00:10;;;;;;;0.43;0.43;;;;;;;7.05;95.68;99354.03;6273423;28;20049;-70
2022/04/08 11:03:11;;;;;;;0.98;0.63;;;;;;;7.20;95.13;99350.47;6273288;28;20048;-72
2022/04/08 11:06:16;;;;;;;2.47;0.85;;;;;;;7.23;95.21;99355.50;6273624;28;20041;-72
2022/04/08 11:09:18;;;;;;;1.67;0.88;;;;;;;7.11;92.84;99356.25;6273570;28;20060;-71
2022/04/08 11:12:19;;;;;;;1.52;1.13;;;;;;;7.14;96.90;99345.63;6273132;28;20045;-71
2022/04/08 11:15:23;;;;;;;0.57;0.40;;;;;;;7.24;94.01;99343.28;6272915;28;20048;-70
2022/04/08 11:18:25;;;;;;;2.15;0.80;;;;;;;7.32;90.80;99343.63;6273437;28;20045;-72
2022/04/08 11:21:29;;;;;;;1.30;0.85;;;;;;;7.49;90.29;99345.19;6272267;28;20424;-71
2022/04/08 11:24:35;;;;;;;2.17;1.83;;;;;;;7.45;86.34;99356.75;6273612;28;20056;-71
2022/04/08 11:27:37;;;;;;;0.45;0.45;;;;;;;7.44;85.62;99342.84;6273001;28;20408;-70
2022/04/08 11:30:40;;;;;;;1.60;0.82;;;;;;;7.43;88.00;99356.03;6272501;28;20053;-71
2022/04/08 11:33:41;;;;;;;2.15;0.70;;;;;;;7.54;84.21;99345.72;6272370;28;20056;-71
2022/04/08 11:36:45;;;;;;;1.75;0.73;;;;;;;7.59;81.85;99354.97;6272475;28;20045;-70
2022/04/08 11:39:57;;;;;;;3.63;1.33;;;;;;;7.75;86.08;99344.38;6260718;28;20056;-71
2022/04/08 11:42:59;;;;;;;6.70;0.60;;;;;;;8.09;82.12;99340.41;6247540;28;20057;-71
2022/04/08 11:46:01;;;;;;;1.90;0.70;;;;;;;8.29;81.34;99348.72;6248168;28;20042;-70
2022/04/08 11:49:04;;;;;;;3.75;0.73;;;;;;;8.45;80.42;99340.69;6247731;28;20053;-70
2022/04/08 11:52:08;;;;;;;0.50;0.50;;;;;;;8.46;81.48;99338.00;6269797;28;20045;-70
2022/04/08 11:55:10;;;;;;;6.82;0.63;;;;;;;8.32;80.77;99338.06;6272251;28;20051;-69
2022/04/08 11:58:18;;;;;;;0.90;0.90;;;;;;;8.08;81.86;99353.56;6272611;28;20553;-69
2022/04/08 12:01:19;;;;;;;3.00;0.65;;;;;;;8.17;82.80;99352.13;6271351;28;20055;-69
2022/04/08 12:04:21;;;;;;;0.47;0.47;;;;;;;8.32;81.45;99343.28;6272302;28;20044;-70
2022/04/08 12:07:28;;;;;;;2.53;0.70;;;;;;;8.11;81.54;99325.44;6270976;28;20053;-70
2022/04/08 12:10:29;;;;;;;2.95;0.85;;;;;;;8.20;82.58;99320.53;6259706;28;20053;-70
2022/04/08 12:13:30;;;;;;;1.08;0.80;;;;;;;8.92;82.12;99318.31;6268723;28;20053;-70
2022/04/08 12:16:32;;;;;;;1.77;0.73;;;;;;;9.58;79.26;99317.09;6261157;28;20037;-70
2022/04/08 12:19:40;;;;;;;1.10;0.57;;;;;;;9.52;77.42;99299.19;6255049;28;20052;-70
2022/04/08 12:22:46;;;;;;;0.93;0.40;;;;;;;9.20;77.28;99298.84;6259241;28;20053;-70
2022/04/08 12:25:50;;;;;;;2.38;0.85;;;;;;;9.01;75.04;99308.00;6246895;28;20048;-70
2022/04/08 12:29:02;;;;;;;1.27;0.40;;;;;;;8.76;76.88;99290.53;6258752;28;20132;-70
2022/04/08 12:32:04;;;;;;;2.38;0.68;;;;;;;8.54;73.22;99291.19;6266249;28;20052;-70
2022/04/08 12:35:08;;;;;;;1.40;0.70;;;;;;;8.72;72.56;99289.09;6261975;28;20037;-71
2022/04/08 12:38:11;;;;;;;2.25;0.43;;;;;;;8.59;71.69;99278.63;6268856;28;20053;-71
2022/04/08 12:41:12;;;;;;;6.10;0.80;;;;;;;8.45;72.21;99262.16;6270823;28;20426;-71
2022/04/08 12:44:14;;;;;;;0.80;0.50;;;;;;;8.23;73.16;99292.41;6271449;28;20053;-70
2022/04/08 12:47:15;;;;;;;0.70;0.68;;;;;;;7.86;75.76;99278.31;6271378;28;20753;-71
2022/04/08 12:50:17;;;;;;;1.65;0.65;;;;;;;7.86;77.33;99288.75;6271211;28;20045;-71
2022/04/08 12:53:20;;;;;;;0.88;0.50;;;;;;;7.68;76.43;99277.72;6270629;28;20511;-71
2022/04/08 12:56:21;;;;;;;2.03;0.88;;;;;;;7.75;78.40;99280.78;6268861;28;20167;-71
2022/04/08 12:59:22;;;;;;;4.68;1.00;;;;;;;7.66;81.25;99284.81;6270234;28;20056;-71
2022/04/08 13:02:24;;;;;;;0.95;0.60;;;;;;;7.54;83.49;99286.47;6253889;28;20060;-71
2022/04/08 13:05:25;;;;;;;0.63;0.57;;;;;;;7.28;90.28;99285.50;6246602;28;20049;-71
2022/04/08 13:08:28;;;;;;;3.85;2.40;;;;;;;7.05;95.86;99278.28;6246851;28;20053;-70
2022/04/08 13:11:30;;;;;;;2.35;0.60;;;;;;;6.60;98.73;99288.84;6245920;28;20064;-71
2022/04/08 13:14:31;;;;;;;1.55;0.65;;;;;;;6.38;100.00;99298.03;6256495;28;20049;-71
2022/04/08 13:17:33;;;;;;;1.52;0.57;;;;;;;6.24;100.00;99285.81;6265153;28;20053;-70
2022/04/08 13:20:34;;;;;;;0.73;0.50;;;;;;;6.17;100.00;99277.50;6267467;28;20061;-70
2022/04/08 13:23:37;;;;;;;5.28;0.40;;;;;;;6.10;98.29;99266.59;6270918;28;20052;-70
2022/04/08 13:26:39;;;;;;;1.45;0.30;;;;;;;6.11;96.91;99264.81;6264888;28;20044;-71
2022/04/08 13:29:44;;;;;;;0.70;0.55;;;;;;;6.20;96.40;99271.25;6265493;28;20057;-70
2022/04/08 13:32:45;;;;;;;1.92;0.40;;;;;;;6.35;96.15;99276.41;6243165;28;20493;-71
2022/04/08 13:35:48;;;;;;;0.65;0.32;;;;;;;6.50;93.40;99266.84;6244671;28;20046;-71
2022/04/08 13:38:50;;;;;;;0.50;0.45;;;;;;;6.74;90.58;99272.31;6248307;28;20050;-72
2022/04/08 13:41:52;;;;;;;2.20;0.55;;;;;;;6.96;89.19;99268.41;6264532;28;20041;-71
2022/04/08 13:44:53;;;;;;;0.80;0.50;;;;;;;7.01;88.92;99263.72;6264837;28;20068;-71
2022/04/08 13:47:55;;;;;;;1.27;0.47;;;;;;;7.25;91.08;99277.84;6275927;28;20049;-70
2022/04/08 13:50:56;;;;;;;0.70;0.30;;;;;;;7.38;85.31;99272.69;6269662;28;20054;-72
2022/04/08 13:54:00;;;;;;;2.53;0.60;;;;;;;7.42;89.99;99279.41;6275842;28;20136;-71
2022/04/08 13:57:01;;;;;;;1.50;0.40;;;;;;;7.59;89.63;99278.31;6275492;28;20041;-71
2022/04/08 14:00:03;;;;;;;0.57;0.45;;;;;;;7.75;86.11;99283.38;6274792;28;20053;-72
2022/04/08 14:03:05;;;;;;;1.02;0.43;;;;;;;7.89;85.85;99276.31;6275089;28;20060;-71
2022/04/08 14:06:06;;;;;;;1.20;0.60;;;;;;;8.10;84.34;99273.22;6275053;28;20057;-71
2022/04/08 14:09:09;;;;;;;0.95;0.65;;;;;;;8.11;83.83;99262.63;6275201;28;20045;-73
2022/04/08 14:12:11;;;;;;;0.80;0.47;;;;;;;8.27;83.45;99253.78;6272323;28;20056;-72
2022/04/08 14:15:12;;;;;;;0.75;0.68;;;;;;;8.41;82.35;99247.63;6267806;28;20065;-72
2022/04/08 14:18:13;;;;;;;0.98;0.70;;;;;;;8.42;80.87;99246.69;6250102;28;20485;-71
2022/04/08 14:21:15;;;;;;;0.90;0.60;;;;;;;8.57;82.52;99253.47;6272704;28;20052;-71
2022/04/08 14:24:18;;;;;;;0.85;0.45;;;;;;;8.54;82.21;99243.19;6250850;28;20497;-72